createdAt,value
2019-03-27T00:01:27.901Z,54.48
2019-03-27T00:04:27.513Z,55.67
2019-03-27T00:06:56.404Z,56.27
2019-03-27T00:12:21.423Z,50.70
2019-03-27T00:17:52.377Z,62.45
2019-03-27T00:23:20.880Z,52.63
2019-03-27T00:25:57.649Z,54.13
2019-03-27T00:28:31.949Z,62.13
2019-03-27T00:31:01.060Z,69.40
2019-03-27T00:36:28.442Z,58.20
2019-03-27T00:41:57.029Z,61.23
2019-03-27T00:44:56.126Z,57.03
2019-03-27T00:47:25.117Z,56.00
2019-03-27T00:50:02.444Z,60.67
2019-03-27T00:52:52.468Z,68.70
2019-03-27T00:55:21.074Z,53.87
2019-03-27T01:00:51.106Z,65.03
2019-03-27T01:03:48.564Z,63.13
2019-03-27T01:06:17.249Z,69.67
2019-03-27T01:09:19.216Z,74.87
2019-03-27T01:11:48.120Z,73.43
2019-03-27T01:14:23.632Z,65.40
2019-03-27T01:16:52.433Z,57.87
2019-03-27T01:19:21.222Z,59.97
2019-03-27T01:21:51.029Z,72.27
2019-03-27T01:24:21.125Z,55.90
2019-03-27T01:26:59.360Z,63.28
2019-03-27T01:29:28.253Z,65.37
2019-03-27T01:32:29.798Z,59.10
2019-03-27T01:34:58.645Z,56.63
2019-03-27T01:37:33.332Z,67.00
2019-03-27T01:40:02.201Z,65.40
2019-03-27T01:42:31.401Z,61.28
2019-03-27T01:44:59.881Z,57.33
2019-03-27T01:47:28.764Z,61.93
2019-03-27T01:50:21.601Z,59.98
2019-03-27T01:52:50.308Z,50.17
2019-03-27T01:58:18.185Z,63.28
2019-03-27T02:00:56.801Z,54.27
2019-03-27T02:03:25.695Z,55.23
2019-03-27T02:05:54.585Z,54.17
2019-03-27T02:08:24.826Z,64.87
2019-03-27T02:10:54.716Z,80.03
2019-03-27T02:13:24.853Z,66.23
2019-03-27T02:16:05.867Z,61.55
2019-03-27T02:18:23.836Z,61.67
2019-03-27T02:20:53.777Z,59.33
2019-03-27T02:23:23.123Z,64.82
2019-03-27T02:25:58.284Z,83.95
2019-03-27T02:28:27.075Z,78.37
2019-03-27T02:30:55.968Z,72.93
2019-03-27T02:33:26.086Z,73.23
2019-03-27T02:35:55.175Z,71.62
2019-03-27T02:38:24.282Z,73.77
2019-03-27T02:40:53.158Z,71.80
2019-03-27T02:43:21.987Z,71.10
2019-03-27T02:45:59.229Z,68.53
2019-03-27T02:48:28.148Z,59.33
2019-03-27T02:51:03.269Z,63.58
2019-03-27T02:53:32.155Z,56.90
2019-03-27T02:56:00.734Z,55.85
2019-03-27T02:58:29.536Z,50.97
2019-03-27T03:00:59.627Z,59.98
2019-03-27T03:03:31.052Z,65.87
2019-03-27T03:06:00.686Z,61.87
2019-03-27T03:08:29.574Z,69.67
2019-03-27T03:11:00.005Z,68.80
2019-03-27T03:13:28.893Z,72.70
2019-03-27T03:16:03.512Z,72.23
2019-03-27T03:18:32.403Z,61.80
2019-03-27T03:21:01.189Z,61.10
2019-03-27T03:23:30.077Z,73.70
2019-03-27T03:25:58.968Z,74.30
2019-03-27T03:28:27.749Z,88.20
2019-03-27T03:30:56.689Z,78.23
2019-03-27T03:33:25.759Z,77.67
2019-03-27T03:35:54.261Z,74.30
2019-03-27T03:38:23.513Z,73.85
2019-03-27T03:40:58.703Z,69.43
2019-03-27T03:43:27.460Z,79.13
2019-03-27T03:45:56.236Z,76.30
2019-03-27T03:48:25.017Z,64.82
2019-03-27T03:50:55.130Z,70.40
2019-03-27T03:53:24.863Z,81.03
2019-03-27T03:55:54.750Z,71.10
2019-03-27T03:58:24.533Z,68.40
2019-03-27T04:00:59.394Z,65.80
2019-03-27T04:03:30.065Z,77.90
2019-03-27T04:06:05.351Z,70.10
2019-03-27T04:08:34.550Z,80.25
2019-03-27T04:11:03.444Z,79.83
2019-03-27T04:13:32.333Z,71.37
2019-03-27T04:16:01.119Z,78.57
2019-03-27T04:18:29.635Z,73.70
2019-03-27T04:23:57.166Z,67.80
2019-03-27T04:29:25.569Z,67.00
2019-03-27T04:32:03.306Z,65.57
2019-03-27T04:34:32.149Z,65.10
2019-03-27T04:37:01.217Z,75.35
2019-03-27T04:39:31.172Z,64.83
2019-03-27T04:42:01.077Z,63.57
2019-03-27T04:44:29.970Z,59.73
2019-03-27T04:46:59.057Z,61.23
2019-03-27T04:49:27.945Z,74.53
2019-03-27T04:51:56.421Z,72.12
2019-03-27T04:54:27.013Z,61.48
2019-03-27T04:56:59.736Z,60.23
2019-03-27T04:59:28.626Z,51.27
2019-03-27T05:01:57.412Z,56.23
2019-03-27T05:04:26.941Z,62.35
2019-03-27T05:06:55.685Z,61.93
2019-03-27T05:09:43.032Z,75.83
2019-03-27T05:12:11.605Z,65.93
2019-03-27T05:17:45.711Z,55.90
2019-03-27T05:20:16.160Z,63.23
2019-03-27T05:22:45.049Z,53.30
2019-03-27T05:25:14.022Z,60.40
2019-03-27T05:27:42.955Z,53.50
2019-03-27T05:30:11.512Z,57.30
2019-03-27T05:32:40.605Z,52.97
2019-03-27T05:35:09.296Z,54.43
2019-03-27T05:37:38.511Z,66.33
2019-03-27T05:40:07.773Z,61.87
2019-03-27T05:42:36.565Z,55.73
2019-03-27T05:45:06.798Z,64.42
2019-03-27T05:47:36.002Z,60.47
2019-03-27T05:50:06.255Z,72.27
2019-03-27T05:52:59.060Z,63.30
2019-03-27T05:55:28.153Z,60.37
2019-03-27T06:00:55.837Z,60.85
2019-03-27T06:06:25.765Z,61.88
2019-03-27T06:09:10.751Z,58.57
2019-03-27T06:11:39.926Z,74.37
2019-03-27T06:14:08.508Z,62.27
2019-03-27T06:17:01.269Z,73.97
2019-03-27T06:19:30.171Z,68.80
2019-03-27T06:22:29.576Z,73.63
2019-03-27T06:24:58.573Z,69.00
2019-03-27T06:30:26.125Z,51.17
2019-03-27T06:33:04.227Z,57.00
2019-03-27T06:35:33.039Z,53.80
2019-03-27T06:38:01.901Z,48.20
2019-03-27T06:43:28.959Z,47.77
2019-03-27T06:46:31.055Z,57.97
2019-03-27T06:48:59.609Z,55.75
2019-03-27T06:51:39.519Z,54.40
2019-03-27T06:53:59.128Z,49.55
2019-03-27T06:56:28.025Z,53.77
2019-03-27T06:58:57.113Z,43.35
2019-03-27T07:01:26.234Z,45.23
2019-03-27T07:03:55.100Z,44.93
2019-03-27T07:06:24.289Z,39.93
2019-03-27T07:08:53.288Z,47.67
2019-03-27T07:11:22.280Z,56.95
2019-03-27T07:13:58.157Z,44.70
2019-03-27T07:16:27.435Z,36.55
2019-03-27T07:18:57.039Z,41.70
2019-03-27T07:21:28.512Z,39.60
2019-03-27T07:23:57.693Z,36.90
2019-03-27T07:26:26.594Z,43.92
2019-03-27T07:28:56.404Z,50.98
2019-03-27T07:31:27.408Z,40.30
2019-03-27T07:33:56.846Z,44.93
2019-03-27T07:36:27.395Z,39.65
2019-03-27T07:41:47.444Z,51.65
2019-03-27T07:44:16.137Z,40.83
2019-03-27T07:46:45.249Z,49.93
2019-03-27T07:49:13.825Z,47.73
2019-03-27T07:51:45.779Z,47.10
2019-03-27T07:54:14.992Z,41.88
2019-03-27T07:56:44.188Z,46.67
2019-03-27T07:59:12.955Z,49.43
2019-03-27T08:01:41.941Z,47.97
2019-03-27T08:04:14.102Z,46.33
2019-03-27T08:06:40.844Z,49.10
2019-03-27T08:09:09.736Z,43.72
2019-03-27T08:11:38.675Z,50.67
2019-03-27T08:14:07.614Z,46.95
2019-03-27T08:16:36.432Z,38.67
2019-03-27T08:19:07.869Z,42.03
2019-03-27T08:21:37.253Z,41.00
2019-03-27T08:24:06.961Z,46.63
2019-03-27T08:26:36.160Z,40.45
2019-03-27T08:29:05.880Z,38.78
2019-03-27T08:31:35.060Z,41.77
2019-03-27T08:34:03.959Z,43.77
2019-03-27T08:36:32.535Z,38.45
2019-03-27T08:39:01.526Z,38.53
2019-03-27T08:41:31.673Z,41.02
2019-03-27T08:44:00.533Z,47.97
2019-03-27T08:46:29.431Z,49.47
2019-03-27T08:48:58.314Z,46.40
2019-03-27T08:51:27.016Z,46.33
2019-03-27T08:53:56.192Z,43.73
2019-03-27T08:56:26.581Z,47.30
2019-03-27T08:58:55.527Z,49.47
2019-03-27T09:01:24.398Z,50.67
2019-03-27T09:03:53.288Z,51.23
2019-03-27T09:06:33.161Z,50.70
2019-03-27T09:08:52.710Z,41.30
2019-03-27T09:11:21.693Z,51.35
2019-03-27T09:13:50.490Z,42.78
2019-03-27T09:16:20.414Z,47.05
2019-03-27T09:18:49.281Z,41.17
2019-03-27T09:21:18.191Z,49.50
2019-03-27T09:23:46.879Z,48.50
2019-03-27T09:26:15.741Z,44.27
2019-03-27T09:28:45.044Z,42.53
2019-03-27T09:31:13.621Z,44.47
2019-03-27T09:33:42.928Z,40.47
2019-03-27T09:36:12.588Z,40.03
2019-03-27T09:38:41.109Z,42.95
2019-03-27T09:41:10.105Z,46.77
2019-03-27T09:43:38.697Z,35.63
2019-03-27T09:46:07.185Z,38.87
2019-03-27T09:48:36.061Z,49.10
2019-03-27T09:51:05.969Z,45.55
2019-03-27T09:53:34.675Z,28.52
2019-03-27T09:56:17.825Z,45.78
2019-03-27T09:58:34.273Z,39.03
2019-03-27T10:01:03.680Z,41.30
2019-03-27T10:03:32.766Z,31.95
2019-03-27T10:06:01.278Z,29.67
2019-03-27T10:08:30.337Z,37.73
2019-03-27T10:10:59.153Z,28.83
2019-03-27T10:13:28.237Z,31.23
2019-03-27T10:15:56.808Z,32.83
2019-03-27T10:18:25.409Z,41.53
2019-03-27T10:20:53.957Z,27.80
2019-03-27T10:23:23.804Z,33.00
2019-03-27T10:25:52.361Z,32.35
2019-03-27T10:28:21.253Z,37.65
2019-03-27T10:30:49.846Z,27.98
2019-03-27T10:33:18.722Z,30.45
2019-03-27T10:35:48.045Z,29.98
2019-03-27T10:38:16.935Z,32.13
2019-03-27T10:40:45.718Z,26.10
2019-03-27T10:43:14.789Z,29.72
2019-03-27T10:45:44.502Z,32.85
2019-03-27T10:48:13.384Z,34.27
2019-03-27T10:50:41.978Z,27.85
2019-03-27T10:53:10.865Z,32.95
2019-03-27T10:55:40.677Z,35.03
2019-03-27T10:58:09.463Z,26.00
2019-03-27T11:00:38.105Z,29.05
2019-03-27T11:03:06.725Z,35.83
2019-03-27T11:05:35.244Z,24.25
2019-03-27T11:08:11.595Z,28.27
2019-03-27T11:10:42.197Z,22.50
2019-03-27T11:13:11.289Z,27.30
2019-03-27T11:15:39.901Z,25.25
2019-03-27T11:18:08.806Z,24.00
2019-03-27T11:20:39.058Z,24.72
2019-03-27T11:23:36.645Z,24.50
2019-03-27T11:26:06.262Z,25.65
2019-03-27T11:29:04.454Z,26.93
2019-03-27T11:31:35.731Z,28.85
2019-03-27T11:34:35.721Z,27.98
2019-03-27T11:37:06.186Z,26.93
2019-03-27T11:39:34.908Z,26.37
2019-03-27T11:42:06.670Z,26.34
2019-03-27T11:44:36.006Z,27.70
2019-03-27T11:47:06.816Z,23.68
2019-03-27T11:49:35.899Z,28.77
2019-03-27T11:52:08.117Z,26.48
2019-03-27T11:54:36.374Z,29.27
2019-03-27T11:57:06.176Z,32.23
2019-03-27T11:59:36.281Z,22.00
2019-03-27T12:02:06.101Z,28.12
2019-03-27T12:04:37.752Z,23.90
2019-03-27T12:07:08.150Z,24.63
2019-03-27T12:09:36.728Z,23.50
2019-03-27T12:12:06.850Z,27.77
2019-03-27T12:14:36.109Z,24.18
2019-03-27T12:17:05.913Z,34.90
2019-03-27T12:19:37.660Z,27.20
2019-03-27T12:22:06.013Z,26.13
2019-03-27T12:24:35.039Z,28.92
2019-03-27T12:27:06.663Z,24.30
2019-03-27T12:29:35.571Z,26.52
2019-03-27T12:32:05.973Z,37.84
2019-03-27T12:34:36.866Z,27.93
2019-03-27T12:37:06.211Z,26.04
2019-03-27T12:39:40.515Z,28.73
2019-03-27T12:42:06.455Z,26.00
2019-03-27T12:44:35.208Z,26.40
2019-03-27T12:47:05.791Z,29.30
2019-03-27T12:49:34.778Z,23.67
2019-03-27T12:52:05.509Z,32.40
2019-03-27T12:54:36.128Z,27.62
2019-03-27T12:57:05.924Z,30.57
2019-03-27T12:59:34.785Z,24.00
2019-03-27T13:04:56.952Z,30.57
2019-03-27T13:07:49.399Z,23.90
2019-03-27T13:10:08.979Z,27.40
2019-03-27T13:12:37.535Z,27.50
2019-03-27T13:15:08.060Z,28.00
2019-03-27T13:17:37.498Z,24.87
2019-03-27T13:20:08.300Z,24.95
2019-03-27T13:22:38.474Z,23.75
2019-03-27T13:25:11.096Z,30.52
2019-03-27T13:27:39.981Z,23.05
2019-03-27T13:30:13.205Z,27.77
2019-03-27T13:32:41.753Z,22.42
2019-03-27T13:35:11.417Z,28.92
2019-03-27T13:37:44.510Z,24.12
2019-03-27T13:40:15.717Z,33.47
2019-03-27T13:42:45.298Z,26.68
2019-03-27T13:45:14.915Z,28.42
2019-03-27T13:47:43.714Z,26.37
2019-03-27T13:50:13.830Z,31.77
2019-03-27T13:52:45.923Z,37.93
2019-03-27T13:55:14.563Z,33.90
2019-03-27T13:57:43.158Z,30.23
2019-03-27T14:00:14.757Z,34.67
2019-03-27T14:02:43.688Z,23.47
2019-03-27T14:05:15.954Z,31.48
2019-03-27T14:07:45.455Z,30.00
2019-03-27T14:10:14.781Z,36.07
2019-03-27T14:12:46.080Z,35.58
2019-03-27T14:15:19.808Z,26.42
2019-03-27T14:17:54.857Z,25.77
2019-03-27T14:20:26.939Z,29.37
2019-03-27T14:22:59.064Z,30.20
2019-03-27T14:25:28.078Z,27.62
2019-03-27T14:28:00.322Z,29.15
2019-03-27T14:30:45.760Z,25.70
2019-03-27T14:33:14.919Z,17.37
2019-03-27T14:35:44.189Z,29.18
2019-03-27T14:38:14.335Z,29.00
2019-03-27T14:40:42.889Z,28.83
2019-03-27T14:43:12.111Z,32.63
2019-03-27T14:45:40.684Z,31.27
2019-03-27T14:48:09.664Z,33.20
2019-03-27T14:50:38.475Z,28.90
2019-03-27T14:53:07.341Z,22.30
2019-03-27T14:55:37.807Z,36.42
2019-03-27T14:58:07.781Z,27.05
2019-03-27T15:00:38.674Z,32.77
2019-03-27T15:03:07.501Z,35.52
2019-03-27T15:05:36.700Z,27.85
2019-03-27T15:08:06.739Z,27.90
2019-03-27T15:10:35.914Z,26.60
2019-03-27T15:13:06.437Z,24.50
2019-03-27T15:15:36.898Z,33.90
2019-03-27T15:18:07.289Z,25.23
2019-03-27T15:20:35.866Z,26.93
2019-03-27T15:23:05.482Z,22.30
2019-03-27T15:25:34.673Z,29.65
2019-03-27T15:28:03.193Z,30.05
2019-03-27T15:30:32.149Z,34.25
2019-03-27T15:33:01.821Z,27.02
2019-03-27T15:35:30.643Z,35.90
2019-03-27T15:37:59.977Z,30.10
2019-03-27T15:40:40.000Z,27.80
2019-03-27T15:43:08.783Z,27.48
2019-03-27T15:45:37.688Z,29.53
2019-03-27T15:48:08.939Z,33.53
2019-03-27T15:50:39.482Z,30.80
2019-03-27T15:53:08.225Z,30.43
2019-03-27T15:55:37.039Z,29.63
2019-03-27T15:58:08.590Z,27.95
2019-03-27T16:00:37.149Z,27.80
2019-03-27T16:03:07.393Z,24.65
2019-03-27T16:05:36.256Z,22.53
2019-03-27T16:08:06.717Z,36.38
2019-03-27T16:10:37.521Z,26.10
2019-03-27T16:13:06.313Z,37.10
2019-03-27T16:15:37.064Z,31.30
2019-03-27T16:18:06.208Z,27.37
2019-03-27T16:20:37.093Z,33.78
2019-03-27T16:23:06.471Z,30.88
2019-03-27T16:25:47.686Z,26.82
2019-03-27T16:28:18.813Z,27.37
2019-03-27T16:30:47.611Z,35.27
2019-03-27T16:33:16.694Z,34.85
2019-03-27T16:35:45.982Z,29.40
2019-03-27T16:38:15.189Z,31.00
2019-03-27T16:40:46.562Z,24.37
2019-03-27T16:43:15.942Z,34.93
2019-03-27T16:45:45.013Z,32.37
2019-03-27T16:48:13.916Z,24.77
2019-03-27T16:50:42.785Z,27.20
2019-03-27T16:53:14.673Z,24.30
2019-03-27T16:55:43.537Z,37.70
2019-03-27T16:58:20.211Z,25.13
2019-03-27T17:00:46.704Z,25.95
2019-03-27T17:03:15.356Z,28.37
2019-03-27T17:05:54.010Z,36.47
2019-03-27T17:08:20.469Z,27.23
2019-03-27T17:10:49.356Z,36.83
2019-03-27T17:13:18.479Z,37.42
2019-03-27T17:15:48.991Z,37.60
2019-03-27T17:18:19.338Z,36.73
2019-03-27T17:20:48.189Z,37.93
2019-03-27T17:23:19.072Z,32.67
2019-03-27T17:25:48.167Z,34.30
2019-03-27T17:28:16.808Z,38.13
2019-03-27T17:30:45.909Z,35.67
2019-03-27T17:33:14.614Z,41.27
2019-03-27T17:35:44.158Z,37.03
2019-03-27T17:38:28.482Z,34.50
2019-03-27T17:40:57.022Z,35.75
2019-03-27T17:46:08.745Z,41.00
2019-03-27T17:48:37.846Z,39.95
2019-03-27T17:51:10.230Z,38.60
2019-03-27T17:53:39.086Z,47.37
2019-03-27T17:56:07.977Z,39.13
2019-03-27T17:58:37.476Z,47.25
2019-03-27T18:01:06.566Z,46.63
2019-03-27T18:03:41.333Z,45.65
2019-03-27T18:08:59.709Z,50.60
2019-03-27T18:14:16.504Z,49.93
2019-03-27T18:16:49.237Z,49.08
2019-03-27T18:19:18.152Z,47.67
2019-03-27T18:21:47.268Z,50.10
2019-03-27T18:24:16.055Z,48.50
2019-03-27T18:26:44.743Z,52.27
2019-03-27T18:29:13.834Z,55.28
2019-03-27T18:31:43.114Z,46.92
2019-03-27T18:34:12.339Z,45.45
2019-03-27T18:36:41.423Z,47.70
2019-03-27T18:39:36.630Z,51.93
2019-03-27T18:42:12.157Z,42.23
2019-03-27T18:45:09.097Z,52.47
2019-03-27T18:47:37.898Z,51.27
2019-03-27T18:50:22.332Z,49.93
2019-03-27T18:52:51.249Z,57.75
2019-03-27T18:55:26.528Z,58.90
2019-03-27T18:58:00.487Z,52.98
2019-03-27T19:00:46.268Z,47.80
2019-03-27T19:03:29.233Z,43.33
2019-03-27T19:05:58.372Z,53.00
2019-03-27T19:11:29.875Z,52.07
2019-03-27T19:14:29.481Z,53.23
2019-03-27T19:16:59.663Z,58.95
2019-03-27T19:22:34.407Z,63.33
2019-03-27T19:25:17.767Z,63.90
2019-03-27T19:27:43.891Z,64.13
2019-03-27T19:30:13.885Z,66.93
2019-03-27T19:33:07.342Z,71.30
2019-03-27T19:35:40.439Z,64.37
2019-03-27T19:41:10.841Z,58.55
2019-03-27T19:46:50.704Z,69.53
2019-03-27T19:52:22.950Z,69.37
2019-03-27T19:54:57.350Z,68.97
2019-03-27T19:57:26.157Z,72.70
2019-03-27T19:59:55.344Z,66.67
2019-03-27T20:02:33.032Z,70.43
2019-03-27T20:05:01.925Z,75.83
2019-03-27T20:07:36.231Z,69.67
2019-03-27T20:10:03.666Z,80.35
2019-03-27T20:12:32.583Z,95.38
2019-03-27T20:15:11.950Z,82.53
2019-03-27T20:17:45.531Z,77.70
2019-03-27T20:20:15.039Z,89.83
2019-03-27T20:22:54.167Z,77.67
2019-03-27T20:25:24.565Z,93.93
2019-03-27T20:27:54.706Z,84.53
2019-03-27T20:30:26.842Z,94.67
2019-03-27T20:32:54.135Z,89.95
2019-03-27T20:35:25.377Z,92.77
2019-03-27T20:37:53.724Z,91.12
2019-03-27T20:40:27.769Z,89.73
2019-03-27T20:42:57.039Z,102.45
2019-03-27T20:45:51.008Z,96.78
2019-03-27T20:48:20.151Z,95.77
2019-03-27T20:50:49.049Z,110.57
2019-03-27T20:53:17.677Z,118.07
2019-03-27T20:55:48.102Z,125.30
2019-03-27T20:58:21.608Z,107.17
2019-03-27T21:00:50.698Z,102.70
2019-03-27T21:03:22.835Z,116.35
2019-03-27T21:05:54.926Z,95.32
2019-03-27T21:08:24.594Z,111.90
2019-03-27T21:10:53.522Z,108.97
2019-03-27T21:16:21.300Z,98.40
2019-03-27T21:18:57.570Z,90.50
2019-03-27T21:21:26.658Z,87.22
2019-03-27T21:23:55.243Z,85.80
2019-03-27T21:26:24.192Z,100.60
2019-03-27T21:28:53.325Z,99.90
2019-03-27T21:31:22.008Z,103.20
2019-03-27T21:33:50.789Z,84.90
2019-03-27T21:36:19.477Z,98.13
2019-03-27T21:38:48.271Z,87.77
2019-03-27T21:44:19.513Z,86.40
2019-03-27T21:46:57.740Z,87.03
2019-03-27T21:49:26.543Z,92.83
2019-03-27T21:51:55.413Z,125.10
2019-03-27T21:54:24.327Z,104.63
2019-03-27T21:56:52.782Z,97.55
2019-03-27T21:59:21.467Z,92.77
2019-03-27T22:01:50.051Z,88.72
2019-03-27T22:04:18.938Z,85.32
2019-03-27T22:06:47.828Z,96.87
2019-03-27T22:09:16.310Z,84.07
2019-03-27T22:11:54.308Z,103.37
2019-03-27T22:14:22.906Z,102.67
2019-03-27T22:16:58.337Z,84.20
2019-03-27T22:19:27.118Z,86.87
2019-03-27T22:21:55.700Z,85.32
2019-03-27T22:24:24.821Z,80.53
2019-03-27T22:26:53.792Z,94.25
2019-03-27T22:29:25.405Z,105.87
2019-03-27T22:31:53.541Z,95.97
2019-03-27T22:34:22.405Z,88.70
2019-03-27T22:36:50.985Z,85.40
2019-03-27T22:39:19.568Z,111.20
2019-03-27T22:41:49.686Z,111.53
2019-03-27T22:44:18.268Z,103.73
2019-03-27T22:46:46.873Z,99.17
2019-03-27T22:49:15.533Z,101.00
2019-03-27T22:51:44.420Z,114.77
2019-03-27T22:57:10.893Z,121.77
2019-03-27T23:00:29.881Z,109.80
2019-03-27T23:03:00.774Z,110.23
2019-03-27T23:05:52.808Z,108.10
2019-03-27T23:08:21.605Z,110.63
2019-03-27T23:10:56.725Z,95.97
2019-03-27T23:13:26.840Z,127.05
2019-03-27T23:15:55.428Z,138.03
2019-03-27T23:18:29.748Z,143.87
2019-03-27T23:20:58.746Z,128.33
2019-03-27T23:23:27.631Z,140.03
2019-03-27T23:26:03.039Z,142.90
2019-03-27T23:28:26.634Z,124.80
2019-03-27T23:30:55.520Z,137.17
2019-03-27T23:33:24.925Z,126.00
2019-03-27T23:35:53.810Z,136.77
2019-03-27T23:38:23.006Z,123.53
2019-03-27T23:40:53.842Z,120.40
2019-03-27T23:43:22.740Z,126.45
2019-03-27T23:45:51.824Z,121.70
2019-03-27T23:48:20.409Z,119.57
2019-03-27T23:50:49.194Z,136.80
2019-03-27T23:53:17.789Z,109.13
2019-03-27T23:55:46.661Z,129.87
2019-03-27T23:58:16.881Z,128.00
